createdAt,value
2022-12-15T00:00:11.347Z,36.00
2022-12-15T00:02:56.726Z,42.30
2022-12-15T00:05:41.881Z,45.20
2022-12-15T00:08:28.987Z,40.53
2022-12-15T00:11:14.833Z,41.27
2022-12-15T00:13:59.869Z,41.47
2022-12-15T00:16:45.606Z,38.27
2022-12-15T00:19:31.028Z,31.33
2022-12-15T00:22:16.233Z,40.50
2022-12-15T00:25:01.551Z,38.53
2022-12-15T00:27:46.687Z,40.43
2022-12-15T00:30:31.916Z,36.03
2022-12-15T00:33:17.074Z,43.17
2022-12-15T00:36:02.165Z,35.83
2022-12-15T00:38:47.585Z,32.63
2022-12-15T00:41:18.644Z,40.33
2022-12-15T00:43:45.788Z,31.30
2022-12-15T00:46:31.457Z,37.33
2022-12-15T00:48:58.192Z,46.27
2022-12-15T00:51:44.366Z,39.40
2022-12-15T00:54:29.585Z,34.90
2022-12-15T00:57:15.116Z,38.37
2022-12-15T01:00:00.463Z,39.10
2022-12-15T01:02:46.126Z,38.57
2022-12-15T01:05:31.447Z,32.10
2022-12-15T01:08:18.727Z,41.07
2022-12-15T01:11:04.071Z,44.87
2022-12-15T01:13:49.598Z,50.57
2022-12-15T01:16:35.263Z,37.10
2022-12-15T01:19:22.545Z,33.37
2022-12-15T01:21:49.811Z,33.57
2022-12-15T01:24:16.544Z,31.70
2022-12-15T01:26:43.172Z,33.43
2022-12-15T01:29:09.777Z,37.87
2022-12-15T01:31:36.719Z,38.63
2022-12-15T01:34:03.379Z,33.70
2022-12-15T01:36:29.975Z,39.57
2022-12-15T01:38:56.777Z,39.70
2022-12-15T01:41:23.532Z,43.03
2022-12-15T01:43:50.805Z,34.33
2022-12-15T01:46:21.018Z,39.30
2022-12-15T01:48:54.797Z,37.13
2022-12-15T01:51:49.837Z,35.77
2022-12-15T01:54:21.392Z,38.70
2022-12-15T01:56:52.653Z,42.17
2022-12-15T01:59:23.796Z,42.20
2022-12-15T02:01:50.657Z,40.23
2022-12-15T02:04:20.676Z,37.07
2022-12-15T02:06:47.226Z,34.00
2022-12-15T02:09:14.947Z,36.20
2022-12-15T02:11:56.035Z,37.20
2022-12-15T02:14:59.900Z,29.30
2022-12-15T02:17:47.010Z,45.30
2022-12-15T02:20:41.893Z,38.20
2022-12-15T02:23:08.493Z,36.67
2022-12-15T02:25:54.504Z,41.33
2022-12-15T02:28:23.862Z,36.40
2022-12-15T02:31:18.736Z,31.40
2022-12-15T02:33:52.938Z,43.13
2022-12-15T02:36:29.827Z,36.57
2022-12-15T02:38:56.540Z,40.40
2022-12-15T02:41:40.726Z,36.40
2022-12-15T02:44:19.964Z,27.90
2022-12-15T02:47:04.874Z,37.33
2022-12-15T02:49:49.898Z,49.60
2022-12-15T02:52:35.330Z,42.10
2022-12-15T02:55:28.102Z,35.53
2022-12-15T02:58:01.942Z,43.00
2022-12-15T03:00:33.394Z,43.80
2022-12-15T03:03:00.312Z,44.47
2022-12-15T03:05:27.219Z,37.17
2022-12-15T03:07:54.617Z,42.67
2022-12-15T03:10:24.442Z,43.10
2022-12-15T03:12:51.699Z,38.57
2022-12-15T03:15:19.459Z,45.30
2022-12-15T03:17:46.239Z,35.60
2022-12-15T03:20:13.042Z,31.40
2022-12-15T03:22:40.174Z,44.53
2022-12-15T03:25:07.113Z,32.60
2022-12-15T03:27:35.302Z,44.20
2022-12-15T03:30:04.710Z,42.37
2022-12-15T03:32:31.865Z,51.47
2022-12-15T03:34:58.480Z,39.63
2022-12-15T03:37:25.155Z,42.03
2022-12-15T03:39:51.879Z,35.73
2022-12-15T03:42:38.491Z,39.33
2022-12-15T03:45:05.662Z,39.40
2022-12-15T03:47:32.336Z,32.60
2022-12-15T03:49:58.990Z,40.47
2022-12-15T03:52:25.654Z,43.83
2022-12-15T03:54:52.264Z,32.87
2022-12-15T03:57:18.888Z,43.83
2022-12-15T03:59:45.528Z,41.03
2022-12-15T04:02:12.285Z,39.13
2022-12-15T04:04:38.995Z,52.57
2022-12-15T04:07:05.657Z,43.23
2022-12-15T04:09:32.215Z,40.60
2022-12-15T04:11:58.864Z,37.60
2022-12-15T04:14:25.408Z,37.33
2022-12-15T04:16:52.037Z,44.90
2022-12-15T04:19:37.332Z,38.80
2022-12-15T04:22:04.155Z,37.27
2022-12-15T04:24:49.106Z,39.60
2022-12-15T04:27:34.144Z,41.70
2022-12-15T04:30:19.886Z,39.97
2022-12-15T04:33:05.019Z,43.53
2022-12-15T04:35:52.633Z,40.70
2022-12-15T04:38:45.480Z,45.37
2022-12-15T04:41:37.022Z,43.43
2022-12-15T04:44:22.838Z,43.63
2022-12-15T04:47:07.981Z,40.40
2022-12-15T04:49:53.192Z,40.70
2022-12-15T04:52:38.458Z,41.03
2022-12-15T04:55:24.142Z,38.10
2022-12-15T04:58:09.463Z,39.37
2022-12-15T05:00:55.237Z,43.57
2022-12-15T05:03:40.410Z,33.67
2022-12-15T05:06:25.541Z,35.20
2022-12-15T05:09:11.102Z,41.20
2022-12-15T05:11:56.820Z,43.30
2022-12-15T05:14:42.196Z,34.87
2022-12-15T05:17:27.632Z,40.70
2022-12-15T05:20:12.961Z,45.53
2022-12-15T05:22:57.836Z,37.50
2022-12-15T05:25:42.800Z,48.17
2022-12-15T05:28:27.583Z,39.13
2022-12-15T05:31:12.926Z,44.47
2022-12-15T05:33:39.743Z,44.40
2022-12-15T05:36:06.649Z,35.03
2022-12-15T05:38:33.395Z,43.43
2022-12-15T05:41:00.191Z,45.93
2022-12-15T05:43:28.259Z,36.57
2022-12-15T05:46:02.440Z,45.00
2022-12-15T05:48:29.044Z,41.80
2022-12-15T05:50:55.634Z,44.97
2022-12-15T05:53:22.260Z,38.17
2022-12-15T05:55:48.865Z,43.17
2022-12-15T05:58:15.480Z,38.50
2022-12-15T06:00:42.181Z,38.27
2022-12-15T06:03:08.873Z,46.80
2022-12-15T06:05:35.549Z,57.53
2022-12-15T06:08:02.139Z,39.93
2022-12-15T06:10:28.820Z,38.90
2022-12-15T06:12:55.411Z,39.80
2022-12-15T06:15:22.046Z,40.60
2022-12-15T06:17:49.713Z,39.27
2022-12-15T06:20:16.601Z,41.63
2022-12-15T06:22:48.163Z,33.30
2022-12-15T06:25:18.791Z,38.60
2022-12-15T06:27:45.404Z,34.83
2022-12-15T06:30:12.411Z,36.00
2022-12-15T06:32:39.044Z,32.93
2022-12-15T06:35:06.164Z,48.07
2022-12-15T06:37:32.820Z,43.47
2022-12-15T06:39:59.477Z,42.80
2022-12-15T06:42:26.099Z,38.93
2022-12-15T06:44:52.681Z,38.23
2022-12-15T06:47:19.312Z,38.63
2022-12-15T06:49:45.909Z,46.73
2022-12-15T06:52:12.560Z,37.53
2022-12-15T06:54:39.157Z,42.40
2022-12-15T06:57:05.741Z,39.60
2022-12-15T06:59:32.335Z,38.20
2022-12-15T07:02:00.543Z,42.57
2022-12-15T07:04:27.428Z,39.70
2022-12-15T07:06:54.111Z,43.17
2022-12-15T07:09:20.865Z,44.17
2022-12-15T07:11:50.303Z,42.60
2022-12-15T07:14:17.000Z,47.13
2022-12-15T07:16:43.662Z,54.47
2022-12-15T07:19:12.862Z,48.93
2022-12-15T07:21:39.753Z,56.17
2022-12-15T07:24:07.247Z,40.97
2022-12-15T07:26:34.412Z,54.43
2022-12-15T07:29:01.131Z,47.73
2022-12-15T07:31:27.842Z,54.90
2022-12-15T07:33:54.853Z,65.97
2022-12-15T07:36:22.082Z,75.40
2022-12-15T07:38:50.591Z,60.27
2022-12-15T07:41:19.070Z,51.10
2022-12-15T07:43:47.079Z,46.13
2022-12-15T07:46:14.110Z,43.63
2022-12-15T07:48:40.770Z,48.47
2022-12-15T07:51:13.837Z,46.00
2022-12-15T07:53:46.230Z,47.73
2022-12-15T07:56:12.836Z,50.47
2022-12-15T07:58:39.501Z,50.77
2022-12-15T08:01:08.741Z,45.60
2022-12-15T08:03:36.940Z,44.03
2022-12-15T08:06:08.635Z,47.50
2022-12-15T08:08:36.598Z,53.33
2022-12-15T08:11:12.360Z,43.70
2022-12-15T08:16:28.056Z,56.77
2022-12-15T08:18:57.128Z,66.07
2022-12-15T08:21:23.803Z,82.17
2022-12-15T08:23:50.752Z,71.63
2022-12-15T08:26:18.761Z,59.20
2022-12-15T08:28:46.232Z,52.03
2022-12-15T08:31:19.154Z,55.60
2022-12-15T08:33:47.099Z,57.50
2022-12-15T08:36:16.446Z,66.43
2022-12-15T08:38:44.828Z,58.70
2022-12-15T08:41:17.320Z,59.53
2022-12-15T08:43:48.537Z,70.30
2022-12-15T08:46:17.757Z,69.40
2022-12-15T08:48:45.768Z,63.47
2022-12-15T08:51:14.739Z,60.77
2022-12-15T08:53:41.366Z,56.70
2022-12-15T08:56:12.389Z,54.20
2022-12-15T08:58:40.192Z,71.93
2022-12-15T09:01:09.796Z,54.43
2022-12-15T09:03:37.098Z,58.23
2022-12-15T09:06:08.394Z,53.40
2022-12-15T09:08:35.295Z,51.00
2022-12-15T09:11:02.680Z,48.07
2022-12-15T09:13:30.015Z,46.43
2022-12-15T09:16:09.257Z,50.63
2022-12-15T09:18:36.747Z,58.73
2022-12-15T09:21:06.139Z,53.30
2022-12-15T09:23:33.892Z,62.53
2022-12-15T09:26:05.250Z,49.40
2022-12-15T09:28:32.450Z,54.73
2022-12-15T09:31:06.807Z,62.23
2022-12-15T09:33:34.212Z,61.63
2022-12-15T09:36:01.551Z,54.93
2022-12-15T09:38:28.206Z,57.40
2022-12-15T09:40:55.150Z,50.50
2022-12-15T09:43:37.158Z,48.43
2022-12-15T09:46:36.302Z,46.57
2022-12-15T09:49:11.436Z,47.47
2022-12-15T09:51:50.766Z,62.80
2022-12-15T09:54:17.689Z,70.70
2022-12-15T09:56:53.407Z,58.00
2022-12-15T09:59:35.693Z,48.03
2022-12-15T10:02:28.907Z,46.37
2022-12-15T10:08:42.914Z,48.50
2022-12-15T10:11:42.996Z,50.10
2022-12-15T10:14:15.763Z,49.17
2022-12-15T10:16:53.161Z,61.60
2022-12-15T10:19:34.135Z,49.47
2022-12-15T10:22:00.944Z,44.50
2022-12-15T10:25:08.591Z,55.63
2022-12-15T10:27:29.208Z,48.37
2022-12-15T10:30:01.680Z,41.60
2022-12-15T10:32:31.246Z,51.27
2022-12-15T10:34:57.977Z,41.27
2022-12-15T10:37:24.728Z,52.90
2022-12-15T10:39:51.576Z,45.00
2022-12-15T10:42:26.557Z,43.57
2022-12-15T10:44:58.167Z,46.67
2022-12-15T10:47:27.278Z,51.70
2022-12-15T10:49:55.705Z,43.73
2022-12-15T10:52:34.672Z,50.10
2022-12-15T10:55:01.557Z,43.17
2022-12-15T10:57:31.813Z,45.63
2022-12-15T11:00:25.036Z,48.83
2022-12-15T11:02:51.990Z,43.60
2022-12-15T11:05:19.005Z,45.80
2022-12-15T11:07:46.062Z,44.67
2022-12-15T11:10:16.991Z,46.00
2022-12-15T11:12:58.370Z,43.03
2022-12-15T11:15:31.415Z,46.10
2022-12-15T11:18:27.353Z,55.33
2022-12-15T11:21:09.921Z,42.07
2022-12-15T11:23:48.837Z,40.67
2022-12-15T11:26:55.213Z,38.50
2022-12-15T11:29:28.815Z,33.50
2022-12-15T11:31:58.924Z,40.63
2022-12-15T11:34:41.801Z,43.50
2022-12-15T11:37:24.149Z,37.70
2022-12-15T11:40:18.627Z,45.90
2022-12-15T11:43:11.094Z,42.40
2022-12-15T11:45:59.327Z,38.90
2022-12-15T11:49:08.147Z,43.67
2022-12-15T11:51:44.637Z,39.00
2022-12-15T11:54:29.802Z,37.70
2022-12-15T11:57:03.011Z,41.33
2022-12-15T11:59:49.479Z,43.43
2022-12-15T12:02:35.108Z,41.73
2022-12-15T12:05:20.250Z,38.97
2022-12-15T12:08:09.702Z,39.90
2022-12-15T12:10:51.940Z,42.47
2022-12-15T12:13:43.518Z,42.70
2022-12-15T12:16:32.103Z,55.97
2022-12-15T12:19:06.326Z,38.43
2022-12-15T12:21:51.172Z,42.67
2022-12-15T12:24:30.786Z,45.07
2022-12-15T12:27:02.730Z,37.13
2022-12-15T12:29:44.650Z,35.87
2022-12-15T12:32:30.651Z,43.33
2022-12-15T12:35:31.138Z,43.10
2022-12-15T12:38:05.250Z,42.33
2022-12-15T12:40:41.237Z,38.37
2022-12-15T12:43:20.313Z,43.07
2022-12-15T12:45:53.282Z,45.00
2022-12-15T12:48:36.341Z,44.17
2022-12-15T12:51:19.529Z,36.87
2022-12-15T12:53:46.158Z,39.27
2022-12-15T12:56:45.377Z,42.70
2022-12-15T12:59:30.435Z,45.50
2022-12-15T13:02:11.498Z,40.10
2022-12-15T13:04:40.621Z,44.40
2022-12-15T13:07:37.747Z,44.63
2022-12-15T13:10:21.136Z,38.40
2022-12-15T13:12:52.979Z,44.77
2022-12-15T13:15:29.374Z,50.80
2022-12-15T13:18:13.165Z,48.07
2022-12-15T13:20:40.607Z,40.73
2022-12-15T13:23:22.110Z,37.00
2022-12-15T13:25:57.508Z,39.40
2022-12-15T13:28:35.051Z,34.37
2022-12-15T13:31:23.129Z,36.30
2022-12-15T13:33:50.232Z,39.93
2022-12-15T13:36:42.230Z,40.10
2022-12-15T13:39:14.955Z,46.03
2022-12-15T13:42:07.502Z,43.43
2022-12-15T13:44:51.881Z,38.53
2022-12-15T13:47:18.657Z,38.63
2022-12-15T13:50:19.600Z,40.90
2022-12-15T13:55:39.265Z,46.43
2022-12-15T13:58:17.430Z,43.20
2022-12-15T14:00:56.275Z,36.40
2022-12-15T14:03:23.611Z,46.03
2022-12-15T14:05:56.251Z,48.07
2022-12-15T14:08:25.222Z,55.20
2022-12-15T14:10:55.246Z,41.70
2022-12-15T14:13:26.181Z,40.80
2022-12-15T14:16:21.501Z,37.13
2022-12-15T14:19:13.438Z,41.70
2022-12-15T14:21:40.345Z,38.83
2022-12-15T14:24:38.438Z,42.27
2022-12-15T14:27:06.449Z,44.43
2022-12-15T14:29:33.127Z,36.87
2022-12-15T14:32:00.625Z,40.17
2022-12-15T14:34:35.729Z,37.87
2022-12-15T14:37:07.776Z,36.73
2022-12-15T14:39:45.001Z,50.63
2022-12-15T14:42:18.607Z,43.40
2022-12-15T14:44:49.935Z,35.37
2022-12-15T14:47:35.355Z,34.30
2022-12-15T14:50:04.096Z,40.37
2022-12-15T14:52:41.963Z,43.47
2022-12-15T14:55:31.141Z,36.67
2022-12-15T14:57:58.424Z,45.20
2022-12-15T15:00:27.995Z,43.30
2022-12-15T15:03:10.627Z,37.57
2022-12-15T15:03:19.898Z,43.27
2022-12-15T15:05:51.659Z,45.70
2022-12-15T15:08:43.049Z,34.23
2022-12-15T15:11:39.558Z,37.23
2022-12-15T15:14:13.290Z,38.17
2022-12-15T15:16:40.427Z,42.20
2022-12-15T15:19:07.370Z,48.93
2022-12-15T15:21:37.433Z,52.90
2022-12-15T15:24:39.410Z,61.40
2022-12-15T15:27:28.600Z,49.80
2022-12-15T15:30:23.296Z,45.87
2022-12-15T15:33:02.075Z,53.37
2022-12-15T15:35:33.873Z,55.93
2022-12-15T15:38:32.378Z,64.23
2022-12-15T15:41:02.548Z,66.27
2022-12-15T15:43:29.442Z,78.00
2022-12-15T15:46:02.271Z,71.70
2022-12-15T15:48:34.204Z,72.70
2022-12-15T15:51:02.756Z,56.23
2022-12-15T15:53:35.509Z,64.53
2022-12-15T15:56:07.969Z,65.13
2022-12-15T15:58:36.192Z,57.60
2022-12-15T16:01:06.908Z,59.53
2022-12-15T16:03:38.518Z,54.63
2022-12-15T16:06:06.677Z,50.93
2022-12-15T16:08:36.397Z,47.77
2022-12-15T16:11:03.591Z,57.90
2022-12-15T16:13:30.250Z,51.80
2022-12-15T16:15:56.931Z,55.57
2022-12-15T16:18:24.262Z,62.73
2022-12-15T16:20:51.910Z,61.87
2022-12-15T16:23:26.405Z,47.17
2022-12-15T16:25:56.237Z,58.33
2022-12-15T16:28:25.806Z,53.40
2022-12-15T16:30:52.939Z,46.97
2022-12-15T16:33:20.035Z,55.83
2022-12-15T16:35:48.296Z,56.37
2022-12-15T16:38:26.869Z,70.27
2022-12-15T16:40:55.532Z,55.03
2022-12-15T16:43:26.167Z,64.77
2022-12-15T16:45:54.847Z,65.00
2022-12-15T16:48:22.048Z,63.20
2022-12-15T16:50:55.231Z,51.97
2022-12-15T16:53:34.460Z,59.03
2022-12-15T16:56:04.705Z,64.50
2022-12-15T16:58:34.288Z,78.03
2022-12-15T17:01:01.537Z,69.77
2022-12-15T17:03:28.394Z,61.57
2022-12-15T17:06:01.099Z,66.57
2022-12-15T17:08:33.637Z,55.13
2022-12-15T17:11:01.122Z,66.83
2022-12-15T17:13:45.591Z,76.37
2022-12-15T17:16:14.642Z,80.83
2022-12-15T17:18:42.939Z,75.30
2022-12-15T17:21:15.833Z,64.80
2022-12-15T17:23:48.013Z,63.77
2022-12-15T17:26:29.709Z,58.23
2022-12-15T17:29:00.966Z,63.13
2022-12-15T17:31:34.893Z,77.13
2022-12-15T17:34:28.583Z,84.43
2022-12-15T17:36:56.848Z,72.87
2022-12-15T17:39:23.642Z,47.70
2022-12-15T17:42:05.939Z,57.00
2022-12-15T17:44:37.284Z,59.77
2022-12-15T17:47:07.949Z,67.53
2022-12-15T17:49:37.580Z,66.30
2022-12-15T17:52:22.165Z,60.57
2022-12-15T17:54:49.282Z,60.87
2022-12-15T17:57:15.917Z,56.73
2022-12-15T17:59:42.741Z,54.30
2022-12-15T18:02:13.186Z,62.03
2022-12-15T18:04:40.972Z,60.63
2022-12-15T18:07:14.006Z,61.87
2022-12-15T18:09:41.518Z,67.67
2022-12-15T18:12:18.009Z,55.47
2022-12-15T18:14:44.717Z,60.03
2022-12-15T18:17:11.396Z,62.57
2022-12-15T18:19:38.047Z,48.33
2022-12-15T18:22:04.678Z,49.83
2022-12-15T18:24:31.292Z,54.83
2022-12-15T18:26:57.909Z,72.53
2022-12-15T18:29:24.597Z,75.37
2022-12-15T18:31:51.305Z,80.23
2022-12-15T18:34:21.159Z,79.63
2022-12-15T18:36:47.927Z,75.40
2022-12-15T18:39:26.217Z,52.93
2022-12-15T18:41:56.166Z,44.87
2022-12-15T18:44:27.715Z,43.43
2022-12-15T18:46:55.209Z,34.20
2022-12-15T18:49:22.774Z,29.10
2022-12-15T18:51:49.676Z,36.33
2022-12-15T18:54:19.788Z,32.87
2022-12-15T18:56:46.498Z,36.43
2022-12-15T18:59:17.524Z,44.83
2022-12-15T19:01:45.904Z,43.87
2022-12-15T19:04:12.903Z,34.93
2022-12-15T19:06:40.902Z,33.43
2022-12-15T19:09:17.546Z,39.33
2022-12-15T19:12:17.527Z,36.03
2022-12-15T19:14:47.039Z,35.00
2022-12-15T19:17:36.312Z,50.43
2022-12-15T19:20:35.020Z,40.40
2022-12-15T19:23:01.768Z,41.60
2022-12-15T19:25:29.557Z,34.20
2022-12-15T19:28:00.560Z,32.40
2022-12-15T19:30:30.406Z,32.03
2022-12-15T19:32:57.533Z,26.63
2022-12-15T19:35:25.113Z,29.77
2022-12-15T19:37:55.129Z,28.33
2022-12-15T19:40:30.828Z,22.23
2022-12-15T19:42:58.602Z,22.73
2022-12-15T19:45:27.726Z,25.87
2022-12-15T19:47:55.274Z,24.03
2022-12-15T19:50:25.017Z,22.10
2022-12-15T19:52:55.272Z,27.83
2022-12-15T19:55:28.254Z,24.60
2022-12-15T19:57:54.953Z,24.37
2022-12-15T20:00:22.770Z,25.80
2022-12-15T20:02:51.596Z,22.77
2022-12-15T20:05:19.570Z,24.87
2022-12-15T20:07:46.595Z,27.13
2022-12-15T20:10:31.372Z,25.67
2022-12-15T20:12:59.617Z,27.50
2022-12-15T20:15:26.556Z,20.97
2022-12-15T20:17:57.092Z,18.00
2022-12-15T20:20:26.808Z,16.17
2022-12-15T20:22:56.790Z,20.10
2022-12-15T20:25:29.653Z,23.50
2022-12-15T20:27:57.145Z,23.87
2022-12-15T20:30:27.062Z,19.63
2022-12-15T20:32:54.365Z,23.00
2022-12-15T20:35:22.397Z,29.00
2022-12-15T20:37:49.911Z,22.27
2022-12-15T20:40:21.964Z,26.27
2022-12-15T20:42:49.781Z,26.90
2022-12-15T20:45:18.247Z,23.27
2022-12-15T20:47:46.690Z,22.77
2022-12-15T20:50:41.124Z,23.30
2022-12-15T20:53:23.307Z,25.13
2022-12-15T20:55:51.601Z,18.40
2022-12-15T20:58:19.452Z,22.43
2022-12-15T21:00:48.499Z,20.83
2022-12-15T21:03:24.885Z,19.20
2022-12-15T21:05:55.329Z,25.00
2022-12-15T21:08:28.525Z,21.87
2022-12-15T21:11:01.405Z,26.00
2022-12-15T21:13:33.137Z,19.90
2022-12-15T21:16:00.314Z,21.93
2022-12-15T21:19:10.820Z,19.10
2022-12-15T21:21:18.861Z,21.63
2022-12-15T21:23:45.718Z,22.80
2022-12-15T21:26:13.686Z,20.80
2022-12-15T21:28:40.285Z,15.17
2022-12-15T21:31:07.102Z,24.17
2022-12-15T21:33:33.854Z,24.00
2022-12-15T21:36:00.576Z,20.97
2022-12-15T21:38:40.089Z,25.67
2022-12-15T21:41:13.913Z,30.63
2022-12-15T21:43:40.598Z,27.60
2022-12-15T21:46:16.083Z,20.80
2022-12-15T21:49:03.066Z,25.03
2022-12-15T21:51:34.727Z,23.57
2022-12-15T21:54:01.453Z,23.90
2022-12-15T21:56:28.282Z,19.90
2022-12-15T21:58:56.557Z,23.50
2022-12-15T22:01:27.586Z,22.87
2022-12-15T22:03:56.924Z,21.83
2022-12-15T22:06:29.553Z,24.70
2022-12-15T22:09:00.984Z,26.50
2022-12-15T22:11:30.208Z,29.43
2022-12-15T22:13:59.018Z,27.47
2022-12-15T22:16:25.824Z,24.57
2022-12-15T22:18:55.574Z,26.60
2022-12-15T22:21:23.828Z,25.37
2022-12-15T22:23:51.342Z,28.27
2022-12-15T22:26:22.260Z,28.70
2022-12-15T22:28:51.011Z,29.23
2022-12-15T22:31:18.728Z,31.60
2022-12-15T22:33:45.598Z,27.20
2022-12-15T22:36:12.317Z,26.53
2022-12-15T22:38:38.907Z,25.50
2022-12-15T22:41:06.914Z,31.03
2022-12-15T22:43:39.824Z,29.00
2022-12-15T22:46:10.473Z,27.30
2022-12-15T22:48:41.520Z,31.33
2022-12-15T22:51:12.987Z,30.80
2022-12-15T22:53:39.840Z,24.27
2022-12-15T22:56:15.749Z,35.40
2022-12-15T22:58:45.397Z,29.87
2022-12-15T23:01:12.735Z,23.47
2022-12-15T23:03:39.388Z,26.53
2022-12-15T23:06:06.326Z,23.50
2022-12-15T23:08:33.005Z,27.53
2022-12-15T23:11:18.299Z,23.37
2022-12-15T23:13:44.933Z,19.17
2022-12-15T23:16:21.531Z,31.03
2022-12-15T23:18:50.653Z,23.70
2022-12-15T23:21:19.178Z,30.60
2022-12-15T23:23:45.897Z,26.63
2022-12-15T23:26:13.694Z,21.60
2022-12-15T23:28:40.691Z,24.07
2022-12-15T23:31:08.227Z,23.73
2022-12-15T23:33:35.550Z,27.57
2022-12-15T23:36:03.180Z,26.87
2022-12-15T23:38:29.824Z,28.40
2022-12-15T23:40:57.856Z,26.77
2022-12-15T23:43:26.309Z,18.87
2022-12-15T23:45:58.654Z,21.10
2022-12-15T23:48:28.777Z,15.77
2022-12-15T23:50:55.361Z,24.00
2022-12-15T23:53:21.961Z,23.83
2022-12-15T23:55:48.599Z,25.40
2022-12-15T23:58:15.213Z,12.57
